Pinole, California
Current Conditions -  °F | °C
As of 5:53 AM on Wednesday 22 Oct 2014 (Local Time) from KCCR Reporting Station
Clear Clear  
Wind Chill: 51°   Ceiling: Unl
Heat Index: 51°   Visibility: 10mi
Dew Point: 47°   Wind: 5mph
Humidity: 86%   Direction: 180°S
Pressure: 30.05"   Gusts: NA
Location:  38°N, 122.29°W
Report Text: KCCR 221253Z 18004KT 10SM CLR 11/08 A3005 RMK AO2 SLP161 T01060083
Loading
Personal Weather Stations






























Interactive Weather Map
Tropical Storm Tracking
New forecast layout! Learn more

10-Day Weather Forecast

Advertisements
Track Severe Weather on mobile